sensor_id;sensor_type;location;lat;lon;timestamp;temperature;humidity
8888;DHT22;4480;52.370;9.748;2023-05-14T00:01:59;12.40;90.50
8888;DHT22;4480;52.370;9.748;2023-05-14T00:04:26;12.40;91.40
8888;DHT22;4480;52.370;9.748;2023-05-14T00:06:53;12.40;92.20
8888;DHT22;4480;52.370;9.748;2023-05-14T00:09:19;12.40;93.10
8888;DHT22;4480;52.370;9.748;2023-05-14T00:11:46;12.40;93.60
8888;DHT22;4480;52.370;9.748;2023-05-14T00:14:13;12.40;94.10
8888;DHT22;4480;52.370;9.748;2023-05-14T00:16:41;12.30;94.80
8888;DHT22;4480;52.370;9.748;2023-05-14T00:19:08;12.30;95.10
8888;DHT22;4480;52.370;9.748;2023-05-14T00:21:35;12.30;95.50
8888;DHT22;4480;52.370;9.748;2023-05-14T00:24:02;12.30;96.00
8888;DHT22;4480;52.370;9.748;2023-05-14T00:26:29;12.30;96.50
8888;DHT22;4480;52.370;9.748;2023-05-14T00:28:56;12.20;96.90
8888;DHT22;4480;52.370;9.748;2023-05-14T00:31:22;12.20;97.50
8888;DHT22;4480;52.370;9.748;2023-05-14T00:33:51;12.10;97.80
8888;DHT22;4480;52.370;9.748;2023-05-14T00:36:17;12.00;98.30
8888;DHT22;4480;52.370;9.748;2023-05-14T00:38:44;12.00;98.80
8888;DHT22;4480;52.370;9.748;2023-05-14T00:41:11;12.00;99.20
8888;DHT22;4480;52.370;9.748;2023-05-14T00:43:38;11.90;99.70
8888;DHT22;4480;52.370;9.748;2023-05-14T00:46:05;11.90;99.90
8888;DHT22;4480;52.370;9.748;2023-05-14T00:48:31;11.80;99.90
8888;DHT22;4480;52.370;9.748;2023-05-14T00:51:00;11.80;99.90
8888;DHT22;4480;52.370;9.748;2023-05-14T00:53:27;11.70;99.90
8888;DHT22;4480;52.370;9.748;2023-05-14T00:55:54;11.70;99.90
8888;DHT22;4480;52.370;9.748;2023-05-14T00:58:21;11.70;99.90
8888;DHT22;4480;52.370;9.748;2023-05-14T01:00:49;11.70;99.90
8888;DHT22;4480;52.370;9.748;2023-05-14T01:03:16;11.60;99.90
8888;DHT22;4480;52.370;9.748;2023-05-14T01:05:50;11.60;99.90
8888;DHT22;4480;52.370;9.748;2023-05-14T01:08:38;11.60;99.90
8888;DHT22;4480;52.370;9.748;2023-05-14T01:11:10;11.60;99.90
8888;DHT22;4480;52.370;9.748;2023-05-14T01:16:26;11.50;99.90
8888;DHT22;4480;52.370;9.748;2023-05-14T01:18:53;11.50;99.90
8888;DHT22;4480;52.370;9.748;2023-05-14T01:21:34;11.50;99.90
8888;DHT22;4480;52.370;9.748;2023-05-14T01:24:01;11.40;99.90
8888;DHT22;4480;52.370;9.748;2023-05-14T01:26:28;11.40;99.90
8888;DHT22;4480;52.370;9.748;2023-05-14T01:28:59;11.40;99.90
8888;DHT22;4480;52.370;9.748;2023-05-14T01:31:27;11.40;99.90
8888;DHT22;4480;52.370;9.748;2023-05-14T01:33:57;11.30;99.90
8888;DHT22;4480;52.370;9.748;2023-05-14T01:36:25;11.30;99.90
8888;DHT22;4480;52.370;9.748;2023-05-14T01:38:54;11.30;99.90
8888;DHT22;4480;52.370;9.748;2023-05-14T01:41:22;11.30;99.90
8888;DHT22;4480;52.370;9.748;2023-05-14T01:43:50;11.30;99.90
8888;DHT22;4480;52.370;9.748;2023-05-14T01:46:17;11.30;99.90
8888;DHT22;4480;52.370;9.748;2023-05-14T01:48:44;11.20;99.90
8888;DHT22;4480;52.370;9.748;2023-05-14T01:51:11;11.20;99.90
8888;DHT22;4480;52.370;9.748;2023-05-14T01:53:39;11.10;99.90
8888;DHT22;4480;52.370;9.748;2023-05-14T01:56:07;11.10;99.90
8888;DHT22;4480;52.370;9.748;2023-05-14T01:58:34;11.10;99.90
8888;DHT22;4480;52.370;9.748;2023-05-14T02:01:01;11.10;99.90
8888;DHT22;4480;52.370;9.748;2023-05-14T02:03:28;11.10;99.90
8888;DHT22;4480;52.370;9.748;2023-05-14T02:05:54;11.10;99.90
8888;DHT22;4480;52.370;9.748;2023-05-14T02:08:21;11.10;99.90
8888;DHT22;4480;52.370;9.748;2023-05-14T02:10:48;11.00;99.90
8888;DHT22;4480;52.370;9.748;2023-05-14T02:13:16;11.00;99.90
8888;DHT22;4480;52.370;9.748;2023-05-14T02:15:43;11.00;99.90
8888;DHT22;4480;52.370;9.748;2023-05-14T02:18:09;11.00;99.90
8888;DHT22;4480;52.370;9.748;2023-05-14T02:20:36;11.00;99.90
8888;DHT22;4480;52.370;9.748;2023-05-14T02:23:03;11.00;99.90
8888;DHT22;4480;52.370;9.748;2023-05-14T02:25:30;11.00;99.90
8888;DHT22;4480;52.370;9.748;2023-05-14T02:27:57;11.00;99.90
8888;DHT22;4480;52.370;9.748;2023-05-14T02:30:25;11.00;99.90
8888;DHT22;4480;52.370;9.748;2023-05-14T02:32:52;10.90;99.90
8888;DHT22;4480;52.370;9.748;2023-05-14T02:35:18;10.90;99.90
8888;DHT22;4480;52.370;9.748;2023-05-14T02:37:45;10.90;99.90
8888;DHT22;4480;52.370;9.748;2023-05-14T02:40:12;10.90;99.90
8888;DHT22;4480;52.370;9.748;2023-05-14T02:42:39;10.90;99.90
8888;DHT22;4480;52.370;9.748;2023-05-14T02:45:06;10.80;99.90
8888;DHT22;4480;52.370;9.748;2023-05-14T02:47:34;10.80;99.90
8888;DHT22;4480;52.370;9.748;2023-05-14T02:50:01;10.80;99.90
8888;DHT22;4480;52.370;9.748;2023-05-14T02:52:29;10.70;99.90
8888;DHT22;4480;52.370;9.748;2023-05-14T02:54:56;10.70;99.90
8888;DHT22;4480;52.370;9.748;2023-05-14T02:57:22;10.60;99.90
8888;DHT22;4480;52.370;9.748;2023-05-14T02:59:49;10.60;99.90
8888;DHT22;4480;52.370;9.748;2023-05-14T03:02:16;10.60;99.90
8888;DHT22;4480;52.370;9.748;2023-05-14T03:04:44;10.50;99.90
8888;DHT22;4480;52.370;9.748;2023-05-14T03:07:11;10.50;99.90
8888;DHT22;4480;52.370;9.748;2023-05-14T03:09:38;10.50;99.90
8888;DHT22;4480;52.370;9.748;2023-05-14T03:12:06;10.40;99.90
8888;DHT22;4480;52.370;9.748;2023-05-14T03:14:33;10.40;99.90
8888;DHT22;4480;52.370;9.748;2023-05-14T03:16:59;10.30;99.90
8888;DHT22;4480;52.370;9.748;2023-05-14T03:19:26;10.40;99.90
8888;DHT22;4480;52.370;9.748;2023-05-14T03:21:54;10.30;99.90
8888;DHT22;4480;52.370;9.748;2023-05-14T03:24:21;10.30;99.90
8888;DHT22;4480;52.370;9.748;2023-05-14T03:26:48;10.30;99.90
8888;DHT22;4480;52.370;9.748;2023-05-14T03:29:15;10.30;99.90
8888;DHT22;4480;52.370;9.748;2023-05-14T03:31:42;10.30;99.90
8888;DHT22;4480;52.370;9.748;2023-05-14T03:34:09;10.30;99.90
8888;DHT22;4480;52.370;9.748;2023-05-14T03:36:36;10.30;99.90
8888;DHT22;4480;52.370;9.748;2023-05-14T03:39:05;10.20;99.90
8888;DHT22;4480;52.370;9.748;2023-05-14T03:41:34;10.20;99.90
8888;DHT22;4480;52.370;9.748;2023-05-14T03:44:01;10.20;99.90
8888;DHT22;4480;52.370;9.748;2023-05-14T03:46:30;10.30;99.90
8888;DHT22;4480;52.370;9.748;2023-05-14T03:48:57;10.30;99.90
8888;DHT22;4480;52.370;9.748;2023-05-14T03:51:24;10.30;99.90
8888;DHT22;4480;52.370;9.748;2023-05-14T03:53:50;10.30;99.90
8888;DHT22;4480;52.370;9.748;2023-05-14T03:56:19;10.30;99.90
8888;DHT22;4480;52.370;9.748;2023-05-14T03:58:47;10.30;99.90
8888;DHT22;4480;52.370;9.748;2023-05-14T04:01:13;10.30;99.90
8888;DHT22;4480;52.370;9.748;2023-05-14T04:03:40;10.30;99.90
8888;DHT22;4480;52.370;9.748;2023-05-14T04:06:07;10.40;99.90
8888;DHT22;4480;52.370;9.748;2023-05-14T04:11:41;10.90;99.90
8888;DHT22;4480;52.370;9.748;2023-05-14T04:14:08;11.20;99.90
8888;DHT22;4480;52.370;9.748;2023-05-14T04:16:34;11.60;99.90
8888;DHT22;4480;52.370;9.748;2023-05-14T04:19:02;11.90;99.90
8888;DHT22;4480;52.370;9.748;2023-05-14T04:21:29;12.30;99.90
8888;DHT22;4480;52.370;9.748;2023-05-14T04:23:56;12.50;99.90
8888;DHT22;4480;52.370;9.748;2023-05-14T04:26:22;12.80;99.90
8888;DHT22;4480;52.370;9.748;2023-05-14T04:28:50;13.10;99.90
8888;DHT22;4480;52.370;9.748;2023-05-14T04:31:17;13.30;99.90
8888;DHT22;4480;52.370;9.748;2023-05-14T04:33:44;13.50;99.90
8888;DHT22;4480;52.370;9.748;2023-05-14T04:36:11;13.70;99.90
8888;DHT22;4480;52.370;9.748;2023-05-14T04:38:38;14.00;99.90
8888;DHT22;4480;52.370;9.748;2023-05-14T04:41:05;14.20;99.90
8888;DHT22;4480;52.370;9.748;2023-05-14T04:43:32;14.40;98.90
8888;DHT22;4480;52.370;9.748;2023-05-14T04:46:00;14.50;98.00
8888;DHT22;4480;52.370;9.748;2023-05-14T04:48:27;14.60;97.30
8888;DHT22;4480;52.370;9.748;2023-05-14T04:50:54;14.80;96.20
8888;DHT22;4480;52.370;9.748;2023-05-14T04:53:21;15.00;95.30
8888;DHT22;4480;52.370;9.748;2023-05-14T04:55:47;15.10;93.90
8888;DHT22;4480;52.370;9.748;2023-05-14T04:58:14;15.20;92.90
8888;DHT22;4480;52.370;9.748;2023-05-14T05:00:41;15.30;92.10
8888;DHT22;4480;52.370;9.748;2023-05-14T05:03:09;15.40;91.20
8888;DHT22;4480;52.370;9.748;2023-05-14T05:05:36;15.50;90.50
8888;DHT22;4480;52.370;9.748;2023-05-14T05:08:03;15.60;89.50
8888;DHT22;4480;52.370;9.748;2023-05-14T05:10:30;15.70;88.50
8888;DHT22;4480;52.370;9.748;2023-05-14T05:12:57;15.80;87.20
8888;DHT22;4480;52.370;9.748;2023-05-14T05:15:23;15.90;86.00
8888;DHT22;4480;52.370;9.748;2023-05-14T05:17:50;16.00;85.20
8888;DHT22;4480;52.370;9.748;2023-05-14T05:20:18;16.10;83.60
8888;DHT22;4480;52.370;9.748;2023-05-14T05:22:45;16.20;82.40
8888;DHT22;4480;52.370;9.748;2023-05-14T05:25:12;16.20;81.50
8888;DHT22;4480;52.370;9.748;2023-05-14T05:27:39;16.10;81.80
8888;DHT22;4480;52.370;9.748;2023-05-14T05:30:07;16.10;81.40
8888;DHT22;4480;52.370;9.748;2023-05-14T05:32:34;16.00;81.40
8888;DHT22;4480;52.370;9.748;2023-05-14T05:35:01;15.90;81.30
8888;DHT22;4480;52.370;9.748;2023-05-14T05:37:30;15.90;81.90
8888;DHT22;4480;52.370;9.748;2023-05-14T05:39:57;15.90;82.20
8888;DHT22;4480;52.370;9.748;2023-05-14T05:42:24;16.00;81.60
8888;DHT22;4480;52.370;9.748;2023-05-14T05:44:51;16.20;80.50
8888;DHT22;4480;52.370;9.748;2023-05-14T05:47:18;16.20;79.20
8888;DHT22;4480;52.370;9.748;2023-05-14T05:49:45;16.20;78.70
8888;DHT22;4480;52.370;9.748;2023-05-14T05:52:12;16.20;78.30
8888;DHT22;4480;52.370;9.748;2023-05-14T05:54:40;16.30;78.40
8888;DHT22;4480;52.370;9.748;2023-05-14T05:57:09;16.40;78.00
8888;DHT22;4480;52.370;9.748;2023-05-14T05:59:36;16.40;77.10
8888;DHT22;4480;52.370;9.748;2023-05-14T06:02:03;16.50;76.90
8888;DHT22;4480;52.370;9.748;2023-05-14T06:04:29;16.60;76.10
8888;DHT22;4480;52.370;9.748;2023-05-14T06:06:56;16.60;75.50
8888;DHT22;4480;52.370;9.748;2023-05-14T06:09:23;16.60;74.30
8888;DHT22;4480;52.370;9.748;2023-05-14T06:11:51;16.60;73.90
8888;DHT22;4480;52.370;9.748;2023-05-14T06:14:18;16.50;73.70
8888;DHT22;4480;52.370;9.748;2023-05-14T06:16:45;16.40;74.60
8888;DHT22;4480;52.370;9.748;2023-05-14T06:19:11;16.40;75.40
8888;DHT22;4480;52.370;9.748;2023-05-14T06:21:38;16.40;76.00
8888;DHT22;4480;52.370;9.748;2023-05-14T06:24:06;16.40;76.30
8888;DHT22;4480;52.370;9.748;2023-05-14T06:26:32;16.40;75.30
8888;DHT22;4480;52.370;9.748;2023-05-14T06:29:01;16.40;74.70
8888;DHT22;4480;52.370;9.748;2023-05-14T06:31:27;16.40;74.40
8888;DHT22;4480;52.370;9.748;2023-05-14T06:33:54;16.40;74.20
8888;DHT22;4480;52.370;9.748;2023-05-14T06:36:21;16.30;74.10
8888;DHT22;4480;52.370;9.748;2023-05-14T06:38:48;16.30;73.90
8888;DHT22;4480;52.370;9.748;2023-05-14T06:41:15;16.30;74.40
8888;DHT22;4480;52.370;9.748;2023-05-14T06:43:42;16.40;74.10
8888;DHT22;4480;52.370;9.748;2023-05-14T06:46:10;16.40;73.70
8888;DHT22;4480;52.370;9.748;2023-05-14T06:48:37;16.50;73.60
8888;DHT22;4480;52.370;9.748;2023-05-14T06:51:04;16.60;73.50
8888;DHT22;4480;52.370;9.748;2023-05-14T06:53:31;16.70;73.40
8888;DHT22;4480;52.370;9.748;2023-05-14T06:55:57;16.80;72.20
8888;DHT22;4480;52.370;9.748;2023-05-14T06:58:24;16.90;71.00
8888;DHT22;4480;52.370;9.748;2023-05-14T07:00:51;17.00;70.30
8888;DHT22;4480;52.370;9.748;2023-05-14T07:03:19;17.00;69.70
8888;DHT22;4480;52.370;9.748;2023-05-14T07:05:46;17.10;69.10
8888;DHT22;4480;52.370;9.748;2023-05-14T07:08:13;17.20;68.80
8888;DHT22;4480;52.370;9.748;2023-05-14T07:10:40;17.30;68.10
8888;DHT22;4480;52.370;9.748;2023-05-14T07:13:07;17.40;67.50
8888;DHT22;4480;52.370;9.748;2023-05-14T07:15:37;17.60;67.10
8888;DHT22;4480;52.370;9.748;2023-05-14T07:18:04;17.70;65.70
8888;DHT22;4480;52.370;9.748;2023-05-14T07:20:32;17.80;65.10
8888;DHT22;4480;52.370;9.748;2023-05-14T07:22:58;17.90;64.60
8888;DHT22;4480;52.370;9.748;2023-05-14T07:25:25;18.10;64.20
8888;DHT22;4480;52.370;9.748;2023-05-14T07:27:52;18.20;63.20
8888;DHT22;4480;52.370;9.748;2023-05-14T07:30:19;18.30;61.70
8888;DHT22;4480;52.370;9.748;2023-05-14T07:32:45;18.50;60.90
8888;DHT22;4480;52.370;9.748;2023-05-14T07:35:12;18.50;59.80
8888;DHT22;4480;52.370;9.748;2023-05-14T07:37:40;18.50;59.40
8888;DHT22;4480;52.370;9.748;2023-05-14T07:40:08;18.60;59.10
8888;DHT22;4480;52.370;9.748;2023-05-14T07:42:35;18.70;58.60
8888;DHT22;4480;52.370;9.748;2023-05-14T07:45:02;18.80;58.60
8888;DHT22;4480;52.370;9.748;2023-05-14T07:47:29;19.00;58.60
8888;DHT22;4480;52.370;9.748;2023-05-14T07:49:56;19.00;58.40
8888;DHT22;4480;52.370;9.748;2023-05-14T07:52:23;19.20;58.50
8888;DHT22;4480;52.370;9.748;2023-05-14T07:54:52;19.30;58.20
8888;DHT22;4480;52.370;9.748;2023-05-14T07:57:19;19.40;57.60
8888;DHT22;4480;52.370;9.748;2023-05-14T07:59:47;19.50;57.40
8888;DHT22;4480;52.370;9.748;2023-05-14T08:02:14;19.60;57.30
8888;DHT22;4480;52.370;9.748;2023-05-14T08:04:41;19.70;56.80
8888;DHT22;4480;52.370;9.748;2023-05-14T08:07:08;19.90;56.40
8888;DHT22;4480;52.370;9.748;2023-05-14T08:09:35;20.00;55.90
8888;DHT22;4480;52.370;9.748;2023-05-14T08:12:04;20.10;55.50
8888;DHT22;4480;52.370;9.748;2023-05-14T08:14:31;20.10;54.80
8888;DHT22;4480;52.370;9.748;2023-05-14T08:16:58;20.10;54.40
8888;DHT22;4480;52.370;9.748;2023-05-14T08:19:25;20.10;54.30
8888;DHT22;4480;52.370;9.748;2023-05-14T08:21:52;20.00;54.00
8888;DHT22;4480;52.370;9.748;2023-05-14T08:24:19;19.90;54.10
8888;DHT22;4480;52.370;9.748;2023-05-14T08:26:46;19.80;54.20
8888;DHT22;4480;52.370;9.748;2023-05-14T08:29:14;19.90;54.30
8888;DHT22;4480;52.370;9.748;2023-05-14T08:31:40;20.00;54.30
8888;DHT22;4480;52.370;9.748;2023-05-14T08:34:07;20.10;53.70
8888;DHT22;4480;52.370;9.748;2023-05-14T08:36:33;20.20;53.00
8888;DHT22;4480;52.370;9.748;2023-05-14T08:39:00;20.20;52.70
8888;DHT22;4480;52.370;9.748;2023-05-14T08:41:27;20.30;52.50
8888;DHT22;4480;52.370;9.748;2023-05-14T08:43:56;20.50;52.40
8888;DHT22;4480;52.370;9.748;2023-05-14T08:46:29;20.70;52.00
8888;DHT22;4480;52.370;9.748;2023-05-14T08:48:56;20.80;51.20
8888;DHT22;4480;52.370;9.748;2023-05-14T08:51:26;20.80;51.20
8888;DHT22;4480;52.370;9.748;2023-05-14T08:53:53;20.90;51.00
8888;DHT22;4480;52.370;9.748;2023-05-14T08:56:20;21.10;50.80
8888;DHT22;4480;52.370;9.748;2023-05-14T08:58:48;21.30;50.50
8888;DHT22;4480;52.370;9.748;2023-05-14T09:01:14;21.50;50.20
8888;DHT22;4480;52.370;9.748;2023-05-14T09:03:42;21.60;49.70
8888;DHT22;4480;52.370;9.748;2023-05-14T09:06:09;21.70;49.30
8888;DHT22;4480;52.370;9.748;2023-05-14T09:08:36;21.80;48.90
8888;DHT22;4480;52.370;9.748;2023-05-14T09:11:17;21.90;48.60
8888;DHT22;4480;52.370;9.748;2023-05-14T09:13:43;21.90;47.90
8888;DHT22;4480;52.370;9.748;2023-05-14T09:16:10;21.90;47.60
8888;DHT22;4480;52.370;9.748;2023-05-14T09:18:36;21.90;47.20
8888;DHT22;4480;52.370;9.748;2023-05-14T09:21:04;21.90;46.90
8888;DHT22;4480;52.370;9.748;2023-05-14T09:23:33;22.00;46.80
8888;DHT22;4480;52.370;9.748;2023-05-14T09:26:02;22.10;46.50
8888;DHT22;4480;52.370;9.748;2023-05-14T09:28:29;22.20;46.20
8888;DHT22;4480;52.370;9.748;2023-05-14T09:30:56;22.40;46.20
8888;DHT22;4480;52.370;9.748;2023-05-14T09:33:25;22.40;46.20
8888;DHT22;4480;52.370;9.748;2023-05-14T09:35:54;22.40;46.10
8888;DHT22;4480;52.370;9.748;2023-05-14T09:38:23;22.50;46.20
8888;DHT22;4480;52.370;9.748;2023-05-14T09:40:53;22.60;46.00
8888;DHT22;4480;52.370;9.748;2023-05-14T09:43:19;22.80;45.60
8888;DHT22;4480;52.370;9.748;2023-05-14T09:45:46;22.90;45.40
8888;DHT22;4480;52.370;9.748;2023-05-14T09:48:15;23.00;45.00
8888;DHT22;4480;52.370;9.748;2023-05-14T09:50:42;22.90;45.00
8888;DHT22;4480;52.370;9.748;2023-05-14T09:53:09;22.90;44.80
8888;DHT22;4480;52.370;9.748;2023-05-14T09:55:37;22.90;44.30
8888;DHT22;4480;52.370;9.748;2023-05-14T09:58:06;22.90;43.40
8888;DHT22;4480;52.370;9.748;2023-05-14T10:00:33;23.00;42.90
8888;DHT22;4480;52.370;9.748;2023-05-14T10:03:01;23.10;42.40
8888;DHT22;4480;52.370;9.748;2023-05-14T10:05:30;23.10;41.70
8888;DHT22;4480;52.370;9.748;2023-05-14T10:07:58;23.10;41.50
8888;DHT22;4480;52.370;9.748;2023-05-14T10:10:27;23.10;42.00
8888;DHT22;4480;52.370;9.748;2023-05-14T10:13:02;23.00;41.30
8888;DHT22;4480;52.370;9.748;2023-05-14T10:15:34;23.00;41.10
8888;DHT22;4480;52.370;9.748;2023-05-14T10:18:07;23.20;41.00
8888;DHT22;4480;52.370;9.748;2023-05-14T10:20:36;23.30;40.50
8888;DHT22;4480;52.370;9.748;2023-05-14T10:23:03;23.30;39.60
8888;DHT22;4480;52.370;9.748;2023-05-14T10:25:32;23.20;40.00
8888;DHT22;4480;52.370;9.748;2023-05-14T10:28:01;23.20;40.40
8888;DHT22;4480;52.370;9.748;2023-05-14T10:30:28;23.30;40.20
8888;DHT22;4480;52.370;9.748;2023-05-14T10:33:05;23.60;40.00
8888;DHT22;4480;52.370;9.748;2023-05-14T10:35:56;23.90;39.50
8888;DHT22;4480;52.370;9.748;2023-05-14T10:38:26;23.90;38.40
8888;DHT22;4480;52.370;9.748;2023-05-14T10:41:00;23.90;39.10
8888;DHT22;4480;52.370;9.748;2023-05-14T10:43:29;23.90;38.90
8888;DHT22;4480;52.370;9.748;2023-05-14T10:45:57;24.00;38.70
8888;DHT22;4480;52.370;9.748;2023-05-14T10:48:24;23.90;38.50
8888;DHT22;4480;52.370;9.748;2023-05-14T10:50:52;24.00;38.20
8888;DHT22;4480;52.370;9.748;2023-05-14T10:53:19;24.10;38.30
8888;DHT22;4480;52.370;9.748;2023-05-14T10:55:46;24.20;37.50
8888;DHT22;4480;52.370;9.748;2023-05-14T10:58:14;24.10;37.40
8888;DHT22;4480;52.370;9.748;2023-05-14T11:00:46;23.90;37.40
8888;DHT22;4480;52.370;9.748;2023-05-14T11:03:13;23.90;37.80
8888;DHT22;4480;52.370;9.748;2023-05-14T11:05:41;24.10;38.00
8888;DHT22;4480;52.370;9.748;2023-05-14T11:08:08;24.40;36.80
8888;DHT22;4480;52.370;9.748;2023-05-14T11:10:34;24.50;36.70
8888;DHT22;4480;52.370;9.748;2023-05-14T11:13:03;24.70;36.50
8888;DHT22;4480;52.370;9.748;2023-05-14T11:15:30;24.90;36.20
8888;DHT22;4480;52.370;9.748;2023-05-14T11:17:58;24.90;35.60
8888;DHT22;4480;52.370;9.748;2023-05-14T11:20:25;24.90;35.50
8888;DHT22;4480;52.370;9.748;2023-05-14T11:22:52;25.00;36.20
8888;DHT22;4480;52.370;9.748;2023-05-14T11:25:19;25.30;36.30
8888;DHT22;4480;52.370;9.748;2023-05-14T11:27:49;25.60;35.30
8888;DHT22;4480;52.370;9.748;2023-05-14T11:30:17;25.60;35.00
8888;DHT22;4480;52.370;9.748;2023-05-14T11:32:45;25.70;35.20
8888;DHT22;4480;52.370;9.748;2023-05-14T11:35:14;25.50;35.00
8888;DHT22;4480;52.370;9.748;2023-05-14T11:37:48;25.20;35.70
8888;DHT22;4480;52.370;9.748;2023-05-14T11:40:16;25.10;36.30
8888;DHT22;4480;52.370;9.748;2023-05-14T11:42:43;25.30;36.80
8888;DHT22;4480;52.370;9.748;2023-05-14T11:45:10;25.30;36.90
8888;DHT22;4480;52.370;9.748;2023-05-14T11:47:37;25.20;36.30
8888;DHT22;4480;52.370;9.748;2023-05-14T11:50:05;24.80;36.60
8888;DHT22;4480;52.370;9.748;2023-05-14T11:52:40;24.50;37.00
8888;DHT22;4480;52.370;9.748;2023-05-14T11:55:10;24.90;36.70
8888;DHT22;4480;52.370;9.748;2023-05-14T11:57:37;25.30;35.90
8888;DHT22;4480;52.370;9.748;2023-05-14T12:00:07;25.70;34.90
8888;DHT22;4480;52.370;9.748;2023-05-14T12:02:35;26.00;34.50
8888;DHT22;4480;52.370;9.748;2023-05-14T12:05:04;26.20;34.50
8888;DHT22;4480;52.370;9.748;2023-05-14T12:07:33;26.70;33.30
8888;DHT22;4480;52.370;9.748;2023-05-14T12:10:02;27.10;32.30
8888;DHT22;4480;52.370;9.748;2023-05-14T12:12:34;27.40;31.60
8888;DHT22;4480;52.370;9.748;2023-05-14T12:15:01;27.60;31.20
8888;DHT22;4480;52.370;9.748;2023-05-14T12:17:28;27.70;31.00
8888;DHT22;4480;52.370;9.748;2023-05-14T12:19:56;27.80;30.20
8888;DHT22;4480;52.370;9.748;2023-05-14T12:22:23;27.80;29.90
8888;DHT22;4480;52.370;9.748;2023-05-14T12:24:53;27.70;30.00
8888;DHT22;4480;52.370;9.748;2023-05-14T12:27:22;27.70;30.50
8888;DHT22;4480;52.370;9.748;2023-05-14T12:29:57;27.60;31.00
8888;DHT22;4480;52.370;9.748;2023-05-14T12:32:24;27.40;31.20
8888;DHT22;4480;52.370;9.748;2023-05-14T12:34:51;27.10;31.70
8888;DHT22;4480;52.370;9.748;2023-05-14T12:37:18;26.70;32.00
8888;DHT22;4480;52.370;9.748;2023-05-14T12:39:45;26.40;32.00
8888;DHT22;4480;52.370;9.748;2023-05-14T12:42:13;25.90;32.60
8888;DHT22;4480;52.370;9.748;2023-05-14T12:44:41;25.60;33.50
8888;DHT22;4480;52.370;9.748;2023-05-14T12:47:08;25.50;34.00
8888;DHT22;4480;52.370;9.748;2023-05-14T12:49:34;25.10;33.90
8888;DHT22;4480;52.370;9.748;2023-05-14T12:52:01;24.90;34.10
8888;DHT22;4480;52.370;9.748;2023-05-14T12:54:28;24.60;34.30
8888;DHT22;4480;52.370;9.748;2023-05-14T12:56:56;24.40;34.50
8888;DHT22;4480;52.370;9.748;2023-05-14T12:59:23;24.20;34.60
8888;DHT22;4480;52.370;9.748;2023-05-14T13:01:51;24.10;35.30
8888;DHT22;4480;52.370;9.748;2023-05-14T13:04:18;24.20;34.80
8888;DHT22;4480;52.370;9.748;2023-05-14T13:06:45;24.20;34.00
8888;DHT22;4480;52.370;9.748;2023-05-14T13:09:12;24.50;33.80
8888;DHT22;4480;52.370;9.748;2023-05-14T13:11:38;24.70;33.10
8888;DHT22;4480;52.370;9.748;2023-05-14T13:14:05;24.80;32.20
8888;DHT22;4480;52.370;9.748;2023-05-14T13:16:32;24.70;32.00
8888;DHT22;4480;52.370;9.748;2023-05-14T13:19:00;24.60;32.10
8888;DHT22;4480;52.370;9.748;2023-05-14T13:21:27;24.60;32.40
8888;DHT22;4480;52.370;9.748;2023-05-14T13:23:54;24.50;32.50
8888;DHT22;4480;52.370;9.748;2023-05-14T13:26:20;24.50;32.80
8888;DHT22;4480;52.370;9.748;2023-05-14T13:28:50;24.60;33.00
8888;DHT22;4480;52.370;9.748;2023-05-14T13:31:18;24.90;33.20
8888;DHT22;4480;52.370;9.748;2023-05-14T13:33:44;25.10;32.90
8888;DHT22;4480;52.370;9.748;2023-05-14T13:36:13;25.20;32.90
8888;DHT22;4480;52.370;9.748;2023-05-14T13:38:40;25.20;33.30
8888;DHT22;4480;52.370;9.748;2023-05-14T13:41:07;25.10;33.10
8888;DHT22;4480;52.370;9.748;2023-05-14T13:43:34;25.00;33.30
8888;DHT22;4480;52.370;9.748;2023-05-14T13:46:02;25.10;33.50
8888;DHT22;4480;52.370;9.748;2023-05-14T13:48:29;25.30;33.50
8888;DHT22;4480;52.370;9.748;2023-05-14T13:50:56;25.30;33.70
8888;DHT22;4480;52.370;9.748;2023-05-14T13:53:25;25.10;33.70
8888;DHT22;4480;52.370;9.748;2023-05-14T13:55:52;24.80;34.10
8888;DHT22;4480;52.370;9.748;2023-05-14T13:58:21;24.30;34.30
8888;DHT22;4480;52.370;9.748;2023-05-14T14:00:48;23.80;35.00
8888;DHT22;4480;52.370;9.748;2023-05-14T14:03:15;23.30;35.30
8888;DHT22;4480;52.370;9.748;2023-05-14T14:05:42;22.80;36.10
8888;DHT22;4480;52.370;9.748;2023-05-14T14:08:09;22.40;36.80
8888;DHT22;4480;52.370;9.748;2023-05-14T14:10:37;22.10;37.40
8888;DHT22;4480;52.370;9.748;2023-05-14T14:13:05;21.80;37.70
8888;DHT22;4480;52.370;9.748;2023-05-14T14:15:32;21.70;38.10
8888;DHT22;4480;52.370;9.748;2023-05-14T14:17:59;21.60;38.60
8888;DHT22;4480;52.370;9.748;2023-05-14T14:20:26;21.50;39.10
8888;DHT22;4480;52.370;9.748;2023-05-14T14:22:53;21.40;39.60
8888;DHT22;4480;52.370;9.748;2023-05-14T14:25:20;21.20;38.90
8888;DHT22;4480;52.370;9.748;2023-05-14T14:27:49;21.10;39.10
8888;DHT22;4480;52.370;9.748;2023-05-14T14:30:16;21.10;39.50
8888;DHT22;4480;52.370;9.748;2023-05-14T14:32:43;21.10;39.90
8888;DHT22;4480;52.370;9.748;2023-05-14T14:35:12;21.40;40.00
8888;DHT22;4480;52.370;9.748;2023-05-14T14:37:39;21.80;39.70
8888;DHT22;4480;52.370;9.748;2023-05-14T14:40:08;22.00;39.30
8888;DHT22;4480;52.370;9.748;2023-05-14T14:42:35;22.30;39.00
8888;DHT22;4480;52.370;9.748;2023-05-14T14:45:05;22.60;38.80
8888;DHT22;4480;52.370;9.748;2023-05-14T14:47:32;22.80;38.00
8888;DHT22;4480;52.370;9.748;2023-05-14T14:49:59;22.90;37.60
8888;DHT22;4480;52.370;9.748;2023-05-14T14:52:26;23.00;37.60
8888;DHT22;4480;52.370;9.748;2023-05-14T14:54:54;23.10;37.60
8888;DHT22;4480;52.370;9.748;2023-05-14T14:57:21;23.10;37.60
8888;DHT22;4480;52.370;9.748;2023-05-14T14:59:48;23.10;37.30
8888;DHT22;4480;52.370;9.748;2023-05-14T15:02:16;23.20;37.00
8888;DHT22;4480;52.370;9.748;2023-05-14T15:04:43;23.40;36.70
8888;DHT22;4480;52.370;9.748;2023-05-14T15:07:09;23.70;36.30
8888;DHT22;4480;52.370;9.748;2023-05-14T15:09:36;23.90;35.30
8888;DHT22;4480;52.370;9.748;2023-05-14T15:12:04;24.10;35.00
8888;DHT22;4480;52.370;9.748;2023-05-14T15:14:31;24.20;34.80
8888;DHT22;4480;52.370;9.748;2023-05-14T15:16:57;24.30;34.10
8888;DHT22;4480;52.370;9.748;2023-05-14T15:19:26;24.10;34.10
8888;DHT22;4480;52.370;9.748;2023-05-14T15:21:52;23.90;34.30
8888;DHT22;4480;52.370;9.748;2023-05-14T15:24:19;23.80;34.50
8888;DHT22;4480;52.370;9.748;2023-05-14T15:26:48;23.60;34.80
8888;DHT22;4480;52.370;9.748;2023-05-14T15:29:15;23.50;35.20
8888;DHT22;4480;52.370;9.748;2023-05-14T15:31:43;23.70;35.40
8888;DHT22;4480;52.370;9.748;2023-05-14T15:34:10;23.80;35.40
8888;DHT22;4480;52.370;9.748;2023-05-14T15:36:38;23.70;35.60
8888;DHT22;4480;52.370;9.748;2023-05-14T15:39:05;23.80;35.80
8888;DHT22;4480;52.370;9.748;2023-05-14T15:41:34;23.80;36.00
8888;DHT22;4480;52.370;9.748;2023-05-14T15:44:01;23.90;36.20
8888;DHT22;4480;52.370;9.748;2023-05-14T15:46:28;24.00;36.30
8888;DHT22;4480;52.370;9.748;2023-05-14T15:48:55;24.10;36.30
8888;DHT22;4480;52.370;9.748;2023-05-14T15:51:23;24.30;36.10
8888;DHT22;4480;52.370;9.748;2023-05-14T15:53:51;24.40;36.00
8888;DHT22;4480;52.370;9.748;2023-05-14T15:56:18;24.50;35.70
8888;DHT22;4480;52.370;9.748;2023-05-14T15:58:45;24.60;35.50
8888;DHT22;4480;52.370;9.748;2023-05-14T16:01:12;24.90;35.20
8888;DHT22;4480;52.370;9.748;2023-05-14T16:03:38;25.20;34.50
8888;DHT22;4480;52.370;9.748;2023-05-14T16:06:06;25.70;33.80
8888;DHT22;4480;52.370;9.748;2023-05-14T16:08:32;26.30;33.00
8888;DHT22;4480;52.370;9.748;2023-05-14T16:11:01;26.90;32.10